Time;durP1;ratioP1;P1;durP2;ratioP2;P2;SDS_P1;SDS_P2;PMS_P1;PMS_P2;Temp;Humidity;BMP_temperature;BMP_pressure;BME280_temperature;BME280_humidity;BME280_pressure;Samples;Min_cycle;Max_cycle;Signal;HPM_P1;HPM_P2
2022/02/24 00:00:08;;;;;;;50.30;20.43;;;;;;;9.73;71.12;101347.91;1865100;77;21074;-62
2022/02/24 00:02:39;;;;;;;41.10;18.87;;;;;;;9.74;71.19;101346.98;1862259;77;21071;-61
2022/02/24 00:05:08;;;;;;;46.23;20.10;;;;;;;9.73;71.27;101345.27;1865347;77;21211;-62
2022/02/24 00:07:37;;;;;;;46.33;20.48;;;;;;;9.71;71.35;101342.68;1865297;77;21051;-61
2022/02/24 00:10:08;;;;;;;43.92;20.90;;;;;;;9.72;71.35;101347.48;1865238;77;21067;-62
2022/02/24 00:12:38;;;;;;;44.35;20.48;;;;;;;9.71;71.37;101345.31;1865198;77;21047;-62
2022/02/24 00:15:08;;;;;;;45.98;19.02;;;;;;;9.71;71.39;101337.88;1865328;77;21051;-62
2022/02/24 00:17:37;;;;;;;36.35;18.27;;;;;;;9.70;71.43;101341.40;1830059;77;21140;-62
2022/02/24 00:20:07;;;;;;;41.75;19.50;;;;;;;9.71;71.50;101340.52;1824791;79;21071;-61
2022/02/24 00:22:36;;;;;;;44.27;19.07;;;;;;;9.72;71.60;101335.64;1824836;79;21083;-61
2022/02/24 00:25:06;;;;;;;44.73;19.80;;;;;;;9.73;71.63;101338.70;1824788;79;21063;-62
2022/02/24 00:27:35;;;;;;;40.88;19.57;;;;;;;9.74;71.64;101335.15;1824873;79;21071;-61
2022/02/24 00:30:05;;;;;;;43.20;18.95;;;;;;;9.74;71.72;101340.41;1824945;79;21086;-61
2022/02/24 00:32:34;;;;;;;44.93;19.65;;;;;;;9.73;71.83;101330.81;1824952;79;21083;-61
2022/02/24 00:35:03;;;;;;;45.63;19.52;;;;;;;9.72;71.83;101331.27;1824963;79;21220;-61
2022/02/24 00:37:32;;;;;;;44.23;19.32;;;;;;;9.72;71.82;101331.70;1824895;79;21055;-62
2022/02/24 00:40:00;;;;;;;44.42;19.90;;;;;;;9.72;71.86;101327.76;1824795;79;21153;-61
2022/02/24 00:42:29;;;;;;;40.10;19.07;;;;;;;9.69;71.98;101325.23;1824855;79;21111;-61
2022/02/24 00:44:58;;;;;;;39.05;19.02;;;;;;;9.59;72.24;101324.16;1824820;79;21149;-61
2022/02/24 00:47:27;;;;;;;45.83;20.30;;;;;;;9.60;72.31;101321.91;1824836;79;21071;-61
2022/02/24 00:49:55;;;;;;;46.53;19.52;;;;;;;9.59;72.48;101328.52;1824861;79;21094;-62
2022/02/24 00:52:24;;;;;;;43.23;20.23;;;;;;;9.56;72.61;101327.31;1824766;79;21213;-61
2022/02/24 00:54:53;;;;;;;48.33;20.88;;;;;;;9.58;72.65;101326.81;1824808;79;21079;-62
2022/02/24 00:57:22;;;;;;;47.58;20.48;;;;;;;9.62;72.60;101334.56;1824949;79;21043;-61
2022/02/24 00:59:51;;;;;;;45.38;20.32;;;;;;;9.63;72.70;101333.68;1824592;79;21071;-62
2022/02/24 01:02:20;;;;;;;46.75;19.90;;;;;;;9.65;72.68;101337.12;1824789;79;21510;-61
2022/02/24 01:04:49;;;;;;;51.58;19.35;;;;;;;9.64;72.77;101339.33;1824809;79;21048;-62
2022/02/24 01:07:18;;;;;;;47.38;19.92;;;;;;;9.64;72.66;101332.76;1824832;79;21442;-61
2022/02/24 01:09:46;;;;;;;49.85;20.55;;;;;;;9.69;72.61;101330.48;1824799;79;21170;-61
2022/02/24 01:12:15;;;;;;;44.38;18.87;;;;;;;9.73;72.63;101332.13;1824817;79;21124;-61
2022/02/24 01:14:44;;;;;;;50.12;21.15;;;;;;;9.74;72.70;101333.84;1824814;79;21019;-61
2022/02/24 01:17:13;;;;;;;45.00;19.98;;;;;;;9.76;72.76;101335.54;1825068;78;21087;-61
2022/02/24 01:19:42;;;;;;;43.50;19.07;;;;;;;9.78;72.76;101335.50;1826419;78;21202;-61
2022/02/24 01:22:11;;;;;;;43.50;19.27;;;;;;;9.79;72.77;101334.16;1826710;78;21557;-61
2022/02/24 01:24:39;;;;;;;45.28;19.02;;;;;;;9.82;72.71;101318.73;1826544;78;21090;-61
2022/02/24 01:27:08;;;;;;;46.02;20.45;;;;;;;9.83;72.71;101320.44;1826498;78;21107;-61
2022/02/24 01:29:37;;;;;;;46.60;19.80;;;;;;;9.82;72.72;101315.64;1826419;78;21586;-61
2022/02/24 01:32:08;;;;;;;43.25;19.62;;;;;;;9.82;72.64;101315.64;1826623;78;21040;-61
2022/02/24 01:34:59;;;;;;;47.13;20.48;;;;;;;9.83;72.55;101319.13;1859284;76;21133;-62
2022/02/24 01:37:26;;;;;;;50.28;19.42;;;;;;;9.82;72.47;101317.42;1898101;75;21007;-61
2022/02/24 01:39:55;;;;;;;49.58;20.57;;;;;;;9.79;72.46;101313.12;1898248;75;21530;-62
2022/02/24 01:42:24;;;;;;;40.83;18.07;;;;;;;9.76;72.62;101313.65;1898307;75;21552;-62
2022/02/24 01:44:53;;;;;;;43.30;18.70;;;;;;;9.69;72.90;101318.66;1898333;75;21131;-61
2022/02/24 01:47:22;;;;;;;43.33;18.92;;;;;;;9.64;72.91;101315.66;1898300;75;21041;-62
2022/02/24 01:49:50;;;;;;;50.17;18.95;;;;;;;9.63;72.93;101311.33;1898325;75;21062;-61
2022/02/24 01:52:20;;;;;;;48.30;18.62;;;;;;;9.62;72.92;101306.11;1898276;75;21131;-61
2022/02/24 01:54:49;;;;;;;42.50;18.05;;;;;;;9.58;72.97;101306.64;1898223;75;21433;-61
2022/02/24 01:57:19;;;;;;;45.43;18.77;;;;;;;9.52;73.02;101313.38;1898262;75;21562;-61
2022/02/24 01:59:48;;;;;;;48.90;18.82;;;;;;;9.50;72.97;101315.19;1898306;75;21586;-61
2022/02/24 02:02:17;;;;;;;45.23;20.08;;;;;;;9.49;73.04;101310.81;1898225;75;21034;-61
2022/02/24 02:04:46;;;;;;;44.60;18.98;;;;;;;9.49;73.03;101316.53;1898273;75;21159;-61
2022/02/24 02:07:15;;;;;;;44.90;18.65;;;;;;;9.46;73.18;101318.77;1898162;75;21123;-62
2022/02/24 02:09:45;;;;;;;48.80;21.40;;;;;;;9.43;73.37;101314.92;1898413;75;21034;-62
2022/02/24 02:12:14;;;;;;;47.40;18.67;;;;;;;9.37;73.59;101317.68;1898296;75;21523;-62
2022/02/24 02:14:44;;;;;;;49.38;20.08;;;;;;;9.32;73.74;101324.38;1898290;75;21065;-62
2022/02/24 02:17:12;;;;;;;52.35;19.92;;;;;;;9.34;73.72;101330.92;1910761;75;21013;-61
2022/02/24 02:19:41;;;;;;;44.85;18.15;;;;;;;9.33;73.72;101329.18;1916432;75;21099;-62
2022/02/24 02:22:10;;;;;;;48.20;20.37;;;;;;;9.35;73.69;101334.83;1916484;75;21153;-61
2022/02/24 02:24:38;;;;;;;46.35;18.60;;;;;;;9.34;73.83;101345.37;1916619;74;21045;-61
2022/02/24 02:27:07;;;;;;;47.05;20.15;;;;;;;9.36;73.84;101340.94;1916623;75;21114;-61
2022/02/24 02:29:37;;;;;;;47.70;20.00;;;;;;;9.33;73.97;101348.89;1916623;74;21563;-62
2022/02/24 02:32:07;;;;;;;47.23;19.60;;;;;;;9.33;74.02;101354.14;1916490;75;21041;-63
2022/02/24 02:34:36;;;;;;;46.13;21.07;;;;;;;9.34;73.97;101358.52;1922611;74;21143;-62
2022/02/24 02:37:05;;;;;;;43.38;19.55;;;;;;;9.34;74.13;101359.83;1926238;74;21046;-61
2022/02/24 02:39:33;;;;;;;46.77;19.07;;;;;;;9.27;74.25;101361.27;1926121;74;21107;-62
2022/02/24 02:42:02;;;;;;;45.20;18.35;;;;;;;9.27;74.29;101362.58;1926136;74;21045;-62
2022/02/24 02:44:31;;;;;;;44.33;17.92;;;;;;;9.30;74.24;101364.75;1926180;74;21061;-63
2022/02/24 02:47:00;;;;;;;44.65;17.82;;;;;;;9.33;74.05;101363.34;1926125;74;21029;-62
2022/02/24 02:49:28;;;;;;;49.65;19.62;;;;;;;9.36;73.95;101354.08;1926170;74;21038;-62
2022/02/24 02:51:57;;;;;;;42.50;18.12;;;;;;;9.37;73.83;101359.73;1926179;74;21053;-62
2022/02/24 02:54:26;;;;;;;39.60;17.62;;;;;;;9.41;73.75;101358.33;1926436;74;21566;-61
2022/02/24 02:56:55;;;;;;;40.75;17.52;;;;;;;9.43;73.73;101353.03;1926265;74;21029;-61
2022/02/24 02:59:23;;;;;;;43.30;16.95;;;;;;;9.45;73.66;101366.55;1926080;74;21034;-62
2022/02/24 03:01:53;;;;;;;46.63;18.12;;;;;;;9.46;73.62;101366.08;1926145;74;21041;-61
2022/02/24 03:04:23;;;;;;;41.00;17.35;;;;;;;9.46;73.52;101363.45;1926198;73;21053;-62
2022/02/24 03:06:52;;;;;;;44.53;17.32;;;;;;;9.49;73.49;101368.65;1926093;74;21609;-61
2022/02/24 03:09:21;;;;;;;42.20;17.95;;;;;;;9.49;73.48;101375.68;1926192;74;21483;-61
2022/02/24 03:11:50;;;;;;;39.55;17.37;;;;;;;9.49;73.42;101379.16;1925986;74;21028;-62
2022/02/24 03:14:18;;;;;;;41.50;18.07;;;;;;;9.46;73.40;101374.86;1926199;73;21031;-62
2022/02/24 03:16:47;;;;;;;41.30;17.85;;;;;;;9.45;73.40;101369.63;1908887;74;21061;-62
2022/02/24 03:19:16;;;;;;;44.83;17.85;;;;;;;9.42;73.58;101373.63;1892907;75;21464;-61
2022/02/24 03:21:46;;;;;;;43.50;18.55;;;;;;;9.40;73.66;101374.12;1992144;70;21156;-61
2022/02/24 03:24:15;;;;;;;48.87;19.42;;;;;;;9.42;73.68;101374.95;2003351;71;21048;-62
2022/02/24 03:26:44;;;;;;;49.55;19.32;;;;;;;9.41;73.74;101374.55;2003447;71;21016;-62
2022/02/24 03:29:12;;;;;;;42.08;18.25;;;;;;;9.39;73.77;101377.67;2003553;71;21097;-61
2022/02/24 03:31:42;;;;;;;41.42;18.77;;;;;;;9.38;73.72;101380.73;2003459;71;21020;-62
2022/02/24 03:34:12;;;;;;;43.28;18.73;;;;;;;9.38;73.73;101383.81;2003448;71;21542;-59
2022/02/24 03:36:41;;;;;;;44.30;17.75;;;;;;;9.36;73.71;101390.88;2003334;71;21189;-59
2022/02/24 03:39:10;;;;;;;49.27;19.02;;;;;;;9.35;73.79;101393.08;2003409;71;21103;-59
2022/02/24 03:41:38;;;;;;;46.00;18.23;;;;;;;9.35;73.74;101391.77;2003331;71;21105;-59
2022/02/24 03:44:08;;;;;;;54.80;19.65;;;;;;;9.33;73.64;101394.42;2003450;71;21024;-58
2022/02/24 03:46:36;;;;;;;46.70;18.37;;;;;;;9.32;73.71;101396.66;2003495;71;21015;-59
2022/02/24 03:49:05;;;;;;;41.68;17.50;;;;;;;9.27;73.85;101400.69;2003551;71;21093;-58
2022/02/24 03:51:33;;;;;;;43.60;16.57;;;;;;;9.27;73.97;101397.20;2003239;71;21025;-59
2022/02/24 03:54:03;;;;;;;45.63;18.75;;;;;;;9.26;73.94;101396.81;2003371;71;21491;-59
2022/02/24 03:56:32;;;;;;;49.95;17.90;;;;;;;9.20;73.88;101393.88;2003411;71;21064;-59
2022/02/24 04:01:50;;;;;;;50.05;17.00;;;;;;;9.19;74.02;101407.89;1951801;73;21040;-58
2022/02/24 04:04:19;;;;;;;48.15;17.95;;;;;;;9.19;74.04;101405.73;1952109;73;21464;-60
2022/02/24 04:06:47;;;;;;;42.65;17.00;;;;;;;9.17;74.09;101403.59;1952092;73;21036;-60
2022/02/24 04:09:16;;;;;;;42.45;17.95;;;;;;;9.10;74.30;101401.99;1952073;73;21520;-60
2022/02/24 04:11:45;;;;;;;43.42;17.67;;;;;;;9.08;74.30;101409.91;1952089;73;21538;-59
2022/02/24 04:14:14;;;;;;;45.88;18.37;;;;;;;8.98;74.46;101409.67;1952142;72;21044;-60
2022/02/24 04:16:43;;;;;;;49.05;18.30;;;;;;;8.91;74.67;101404.13;1952007;73;21392;-60
2022/02/24 04:19:12;;;;;;;42.30;16.02;;;;;;;8.92;74.76;101408.50;1952083;73;21541;-59
2022/02/24 04:21:41;;;;;;;35.63;14.95;;;;;;;8.88;74.84;101421.69;1952108;73;21091;-59
2022/02/24 04:24:09;;;;;;;40.70;16.12;;;;;;;8.89;74.90;101422.58;1952040;73;21042;-58
2022/02/24 04:26:38;;;;;;;42.65;16.10;;;;;;;8.85;75.04;101416.95;1952099;72;20994;-59
2022/02/24 04:29:07;;;;;;;48.38;17.02;;;;;;;8.86;75.11;101420.86;1952009;72;21185;-60
2022/02/24 04:31:36;;;;;;;48.00;17.55;;;;;;;8.78;75.40;101438.55;1952073;73;21529;-59
2022/02/24 04:34:05;;;;;;;44.98;15.85;;;;;;;8.72;75.66;101443.91;1952101;73;21460;-58
2022/02/24 04:36:34;;;;;;;42.10;17.17;;;;;;;8.75;75.61;101445.62;1952066;73;21073;-58
2022/02/24 04:39:02;;;;;;;47.93;16.60;;;;;;;8.84;75.42;101440.19;1952078;73;21033;-59
2022/02/24 04:41:31;;;;;;;46.37;15.85;;;;;;;8.92;75.25;101440.02;1951873;73;21502;-59
2022/02/24 04:44:00;;;;;;;42.17;16.23;;;;;;;8.99;75.06;101460.01;1952186;73;21083;-59
2022/02/24 04:46:30;;;;;;;49.65;16.60;;;;;;;9.06;74.90;101472.12;1952026;73;21111;-59
2022/02/24 04:49:00;;;;;;;35.03;14.80;;;;;;;9.09;74.79;101486.48;1952200;72;21047;-59
2022/02/24 04:51:29;;;;;;;38.75;13.98;;;;;;;9.12;74.64;101499.57;1952067;73;20998;-59
2022/02/24 04:53:57;;;;;;;43.65;18.98;;;;;;;9.14;74.48;101510.91;1951932;72;21106;-59
2022/02/24 04:56:26;;;;;;;47.73;18.05;;;;;;;9.12;74.47;101519.28;1951974;72;21535;-59
2022/02/24 04:58:55;;;;;;;52.03;19.50;;;;;;;9.09;74.41;101527.20;1952045;73;21022;-59
2022/02/24 05:01:26;;;;;;;44.25;17.48;;;;;;;9.09;74.48;101528.52;1921450;74;21121;-58
2022/02/24 05:03:55;;;;;;;53.17;19.37;;;;;;;9.09;74.51;101525.89;1922770;74;21066;-59
2022/02/24 05:06:24;;;;;;;56.98;25.05;;;;;;;9.11;74.49;101516.25;1922787;74;21058;-60
2022/02/24 05:08:52;;;;;;;45.83;18.40;;;;;;;9.13;74.46;101505.25;1922989;74;21038;-59
2022/02/24 05:11:21;;;;;;;54.38;16.97;;;;;;;9.15;74.39;101490.32;1922835;74;21034;-59
2022/02/24 05:13:50;;;;;;;58.78;18.80;;;;;;;9.11;74.45;101465.02;1922898;74;21606;-59
2022/02/24 05:16:19;;;;;;;45.40;18.20;;;;;;;9.09;74.51;101454.96;1922930;74;21073;-59
2022/02/24 05:18:47;;;;;;;57.98;18.52;;;;;;;9.04;74.72;101448.51;1922864;74;21147;-61
2022/02/24 05:21:17;;;;;;;47.23;16.97;;;;;;;9.04;74.96;101426.64;1922754;74;21113;-58
2022/02/24 05:23:45;;;;;;;45.80;16.10;;;;;;;9.04;74.98;101418.75;1922893;74;21054;-58
2022/02/24 05:26:14;;;;;;;45.08;16.20;;;;;;;9.00;75.01;101412.70;1922831;74;21066;-58
2022/02/24 05:28:43;;;;;;;48.15;16.85;;;;;;;8.94;75.11;101411.95;1922876;74;21039;-58
2022/02/24 05:31:12;;;;;;;41.68;14.00;;;;;;;8.89;75.24;101402.42;1922811;74;20990;-59
2022/02/24 05:33:41;;;;;;;45.63;15.35;;;;;;;8.85;75.29;101395.52;1922753;74;21538;-60
2022/02/24 05:36:09;;;;;;;40.12;15.20;;;;;;;8.81;75.33;101404.33;1922783;74;21085;-59
2022/02/24 05:38:38;;;;;;;34.78;14.07;;;;;;;8.76;75.51;101405.32;1922865;73;21054;-58
2022/02/24 05:41:07;;;;;;;57.25;16.12;;;;;;;8.66;76.16;101408.14;1923036;74;21108;-59
2022/02/24 05:43:36;;;;;;;47.73;16.37;;;;;;;8.64;76.35;101403.83;1923244;74;21077;-59
2022/02/24 05:46:04;;;;;;;49.83;18.60;;;;;;;8.69;76.54;101422.98;1922733;74;21599;-60
2022/02/24 05:48:33;;;;;;;53.70;17.92;;;;;;;8.82;76.23;101433.65;1922877;73;21124;-59
2022/02/24 05:51:03;;;;;;;55.38;17.35;;;;;;;8.96;76.05;101439.05;1922794;74;21125;-59
2022/02/24 05:53:32;;;;;;;45.73;16.37;;;;;;;9.05;75.91;101442.80;1922909;74;21030;-58
2022/02/24 05:56:01;;;;;;;48.98;18.70;;;;;;;9.02;75.81;101456.87;1922824;74;21045;-59
2022/02/24 05:58:30;;;;;;;51.28;18.87;;;;;;;9.01;75.79;101462.16;1922880;74;21163;-60
2022/02/24 06:00:58;;;;;;;56.77;18.67;;;;;;;9.06;75.71;101466.88;1922788;74;21046;-59
2022/02/24 06:03:27;;;;;;;66.87;20.40;;;;;;;9.04;75.83;101465.58;1922939;74;21042;-60
2022/02/24 06:05:59;;;;;;;59.67;18.67;;;;;;;9.03;75.87;101472.17;1922808;74;21484;-60
2022/02/24 06:08:28;;;;;;;56.92;19.07;;;;;;;9.09;75.79;101474.66;1923008;74;21034;-59
2022/02/24 06:10:57;;;;;;;64.30;18.90;;;;;;;9.16;75.69;101464.45;1922755;74;21030;-60
2022/02/24 06:13:27;;;;;;;63.48;20.40;;;;;;;9.17;75.72;101463.56;1922818;74;21077;-59
2022/02/24 06:15:56;;;;;;;64.72;20.27;;;;;;;9.22;75.75;101464.33;1917544;74;20993;-59
2022/02/24 06:18:25;;;;;;;59.35;20.27;;;;;;;9.32;75.65;101461.05;1889812;76;21145;-59
2022/02/24 06:20:53;;;;;;;61.05;21.02;;;;;;;9.38;75.62;101468.78;1889858;76;21030;-60
2022/02/24 06:23:22;;;;;;;67.78;21.30;;;;;;;9.45;75.64;101464.27;1889801;76;21030;-59
2022/02/24 06:25:51;;;;;;;63.50;19.92;;;;;;;9.54;75.62;101467.14;1889726;75;21046;-59
2022/02/24 06:28:19;;;;;;;66.20;21.40;;;;;;;9.63;75.56;101465.61;1889762;76;21033;-60
2022/02/24 06:30:48;;;;;;;76.80;23.40;;;;;;;9.74;75.32;101457.02;1889951;75;21037;-59
2022/02/24 06:33:17;;;;;;;67.03;23.75;;;;;;;9.81;75.14;101459.02;1889787;76;21046;-58
2022/02/24 06:35:45;;;;;;;59.53;20.60;;;;;;;9.83;75.01;101464.68;1889822;76;21057;-59
2022/02/24 06:38:14;;;;;;;56.55;20.37;;;;;;;9.81;75.06;101464.28;1889659;76;21155;-60
2022/02/24 06:40:43;;;;;;;65.97;21.65;;;;;;;9.75;75.31;101472.33;1890000;76;21117;-59
2022/02/24 06:43:12;;;;;;;63.28;21.48;;;;;;;9.68;75.48;101477.31;1889724;76;21080;-59
2022/02/24 06:45:41;;;;;;;62.62;22.35;;;;;;;9.62;75.60;101476.55;1890068;76;21085;-59
2022/02/24 06:48:09;;;;;;;66.95;21.55;;;;;;;9.59;75.47;101490.22;1889798;76;21061;-59
2022/02/24 06:50:38;;;;;;;70.05;22.45;;;;;;;9.55;75.48;101493.37;1889624;74;21529;-60
2022/02/24 06:53:26;;;;;;;81.12;23.75;;;;;;;9.46;75.65;101496.20;1889758;76;21006;-59
2022/02/24 06:55:55;;;;;;;80.83;23.52;;;;;;;9.41;75.72;101491.52;1927135;74;21034;-59
2022/02/24 06:58:25;;;;;;;69.32;22.45;;;;;;;9.45;75.57;101487.92;1927114;74;21046;-59
2022/02/24 07:00:54;;;;;;;52.15;17.67;;;;;;;9.49;75.44;101494.83;1927276;74;21029;-59
2022/02/24 07:03:24;;;;;;;51.75;17.23;;;;;;;9.48;75.38;101499.69;1839940;74;21114;-57
2022/02/24 07:05:52;;;;;;;54.25;17.07;;;;;;;9.49;75.31;101497.45;1839836;78;21066;-57
2022/02/24 07:08:21;;;;;;;52.75;18.67;;;;;;;9.54;75.24;101494.28;1839755;78;21142;-58
2022/02/24 07:10:50;;;;;;;57.30;19.77;;;;;;;9.60;75.10;101491.97;1839838;78;21086;-59
2022/02/24 07:13:19;;;;;;;56.33;18.50;;;;;;;9.61;75.27;101485.36;1839875;78;21097;-59
2022/02/24 07:15:47;;;;;;;63.08;20.88;;;;;;;9.74;75.48;101486.37;1838734;78;21156;-60
2022/02/24 07:18:16;;;;;;;63.40;19.67;;;;;;;9.93;75.47;101481.09;1830285;78;21023;-59
2022/02/24 07:20:45;;;;;;;55.17;18.02;;;;;;;10.12;75.26;101480.63;1830205;78;21019;-59
2022/02/24 07:23:14;;;;;;;50.55;17.65;;;;;;;10.24;74.90;101479.02;1830172;78;21055;-58
2022/02/24 07:25:43;;;;;;;47.27;16.97;;;;;;;10.27;74.57;101496.02;1830233;77;21062;-59
2022/02/24 07:28:11;;;;;;;46.23;16.65;;;;;;;10.26;74.48;101500.89;1830069;77;21066;-59
2022/02/24 07:30:40;;;;;;;57.25;18.37;;;;;;;10.19;74.37;101499.31;1830189;78;21137;-59
2022/02/24 07:33:09;;;;;;;51.92;17.55;;;;;;;10.10;74.46;101499.55;1830180;78;21052;-60
2022/02/24 07:35:37;;;;;;;46.42;16.02;;;;;;;10.10;74.57;101502.18;1830225;78;21062;-59
2022/02/24 07:38:06;;;;;;;59.60;19.73;;;;;;;10.10;74.60;101499.55;1830160;78;21129;-59
2022/02/24 07:40:35;;;;;;;62.08;20.17;;;;;;;10.09;74.57;101503.06;1926586;72;21554;-56
2022/02/24 07:43:04;;;;;;;57.60;20.37;;;;;;;10.14;74.44;101501.19;1962748;73;21046;-56
2022/02/24 07:45:33;;;;;;;53.92;19.73;;;;;;;10.23;74.34;101494.37;1962722;73;21085;-55
2022/02/24 07:48:01;;;;;;;48.08;16.65;;;;;;;10.33;74.22;101480.13;1962874;73;21031;-56
2022/02/24 07:50:30;;;;;;;49.55;16.70;;;;;;;10.41;74.08;101492.62;1962880;73;21101;-55
2022/02/24 07:52:59;;;;;;;48.15;17.17;;;;;;;10.45;73.98;101482.02;1962982;73;21003;-55
2022/02/24 07:55:28;;;;;;;56.50;18.70;;;;;;;10.47;73.87;101482.84;1962925;73;21088;-56
2022/02/24 07:57:57;;;;;;;60.75;22.93;;;;;;;10.50;73.75;101466.97;1956817;73;21015;-55
2022/02/24 08:00:26;;;;;;;58.92;22.27;;;;;;;10.48;73.76;101472.27;1928447;74;20995;-56
2022/02/24 08:02:55;;;;;;;56.90;20.30;;;;;;;10.39;74.06;101481.27;1928369;74;21047;-55
2022/02/24 08:05:24;;;;;;;56.13;21.45;;;;;;;10.39;74.19;101489.16;1928489;74;21508;-55
2022/02/24 08:07:53;;;;;;;64.50;22.73;;;;;;;10.40;74.19;101490.91;1928387;74;21088;-55
2022/02/24 08:10:23;;;;;;;58.13;20.17;;;;;;;10.47;74.04;101480.20;1928264;74;21468;-56
2022/02/24 08:12:51;;;;;;;54.93;20.50;;;;;;;10.51;73.93;101474.83;1928362;74;21566;-55
2022/02/24 08:15:22;;;;;;;57.65;22.05;;;;;;;10.66;73.73;101491.98;1928384;74;21042;-58
2022/02/24 08:17:55;;;;;;;52.53;19.35;;;;;;;10.80;73.62;101485.85;1928499;74;21031;-58
2022/02/24 08:20:24;;;;;;;48.68;16.00;;;;;;;10.91;73.47;101471.52;1928658;74;21081;-58
2022/02/24 08:22:53;;;;;;;49.15;18.65;;;;;;;11.05;73.27;101464.09;1928212;74;21046;-59
2022/02/24 08:25:23;;;;;;;56.18;19.95;;;;;;;11.26;72.85;101461.25;1928376;74;21453;-57
2022/02/24 08:27:52;;;;;;;61.28;20.65;;;;;;;11.83;72.12;101472.66;1928564;74;21144;-58
2022/02/24 08:30:24;;;;;;;54.77;19.77;;;;;;;12.06;72.15;101501.42;1928376;74;21038;-58
2022/02/24 08:32:54;;;;;;;70.03;24.82;;;;;;;12.07;72.04;101488.64;1928465;74;21104;-57
2022/02/24 08:35:26;;;;;;;68.45;23.27;;;;;;;12.22;71.59;101465.67;1947187;73;21085;-58
2022/02/24 08:37:56;;;;;;;67.80;24.05;;;;;;;12.62;70.89;101452.86;1962940;73;21062;-57
2022/02/24 08:40:24;;;;;;;64.53;23.45;;;;;;;12.99;70.31;101443.56;1958316;73;21562;-58
2022/02/24 08:42:53;;;;;;;68.37;22.93;;;;;;;13.10;70.33;101458.09;1947410;74;21472;-58
2022/02/24 08:45:23;;;;;;;60.65;23.38;;;;;;;13.03;70.20;101463.67;1947347;74;21465;-58
2022/02/24 08:47:51;;;;;;;65.92;22.65;;;;;;;12.92;70.30;101465.39;1947237;74;21531;-58
2022/02/24 08:50:21;;;;;;;53.70;21.00;;;;;;;13.09;70.03;101478.82;1947357;74;21016;-59
2022/02/24 08:52:50;;;;;;;59.03;22.48;;;;;;;13.30;69.46;101468.38;1947369;74;21422;-58
2022/02/24 08:55:18;;;;;;;54.67;21.87;;;;;;;13.44;69.29;101459.44;1947358;74;21027;-57
2022/02/24 08:57:47;;;;;;;49.20;19.40;;;;;;;13.32;69.35;101471.85;1947349;74;21093;-58
2022/02/24 09:00:17;;;;;;;52.05;19.20;;;;;;;13.09;69.30;101467.39;1947296;74;21073;-58
2022/02/24 09:02:45;;;;;;;41.53;16.35;;;;;;;12.83;69.52;101471.88;1947330;74;21062;-57
2022/02/24 09:05:14;;;;;;;38.80;16.40;;;;;;;12.73;69.78;101471.36;1947320;74;21054;-59
2022/02/24 09:07:43;;;;;;;41.83;16.77;;;;;;;12.65;69.73;101464.61;1947484;74;21120;-59
2022/02/24 09:10:12;;;;;;;40.70;15.63;;;;;;;12.59;69.77;101464.84;1947477;74;21035;-58
2022/02/24 09:12:40;;;;;;;43.15;16.85;;;;;;;12.61;69.65;101463.86;1947338;74;21123;-58
2022/02/24 09:15:09;;;;;;;51.08;18.37;;;;;;;12.62;69.62;101458.99;1947275;74;21103;-58
2022/02/24 09:17:38;;;;;;;42.93;17.20;;;;;;;12.61;69.73;101463.86;1947329;74;21008;-57
2022/02/24 09:20:08;;;;;;;47.48;17.77;;;;;;;12.67;69.75;101455.73;1947457;74;21035;-58
2022/02/24 09:22:37;;;;;;;40.33;16.73;;;;;;;12.83;69.65;101447.23;1947319;74;21031;-57
2022/02/24 09:25:06;;;;;;;42.73;17.60;;;;;;;12.98;69.49;101444.00;1947295;74;21458;-58
2022/02/24 09:27:36;;;;;;;40.75;17.10;;;;;;;13.21;68.94;101442.28;1947216;74;21027;-58
2022/02/24 09:30:06;;;;;;;38.13;16.10;;;;;;;13.80;68.08;101440.84;1947352;74;21090;-58
2022/02/24 09:32:37;;;;;;;39.18;15.93;;;;;;;14.00;67.67;101432.92;1947373;74;21552;-58
2022/02/24 09:35:07;;;;;;;43.92;18.73;;;;;;;14.03;67.16;101431.45;1942151;74;21085;-58
2022/02/24 09:37:36;;;;;;;41.60;17.40;;;;;;;14.36;66.16;101429.60;1935287;74;21035;-58
2022/02/24 09:40:08;;;;;;;45.40;18.20;;;;;;;14.54;65.73;101425.28;1892392;75;21178;-55
2022/02/24 09:42:38;;;;;;;42.98;19.10;;;;;;;14.39;65.64;101425.50;1897084;76;21037;-56
2022/02/24 09:45:08;;;;;;;44.73;17.20;;;;;;;14.21;65.75;101429.81;1897032;76;21460;-55
2022/02/24 09:47:39;;;;;;;48.05;19.25;;;;;;;14.25;65.79;101428.74;1897182;76;21041;-56
2022/02/24 09:50:09;;;;;;;44.10;18.85;;;;;;;14.36;65.54;101431.40;1897036;76;21065;-56
2022/02/24 09:52:37;;;;;;;50.03;20.40;;;;;;;14.36;65.51;101430.08;1896952;76;21198;-55
2022/02/24 09:55:07;;;;;;;51.70;20.55;;;;;;;14.35;65.44;101439.82;1897081;76;21046;-55
2022/02/24 09:57:36;;;;;;;45.75;20.37;;;;;;;14.48;65.36;101440.14;1897180;76;21070;-58
2022/02/24 10:00:07;;;;;;;45.30;20.27;;;;;;;15.05;64.52;101437.60;1897050;76;21046;-58
2022/02/24 10:02:36;;;;;;;44.90;18.98;;;;;;;15.59;63.65;101434.55;1897139;76;21119;-59
2022/02/24 10:05:10;;;;;;;44.10;20.23;;;;;;;17.06;61.55;101429.66;1896921;75;21042;-59
2022/02/24 10:07:41;;;;;;;45.63;16.97;;;;;;;18.25;58.86;101423.73;1897050;76;21475;-58
2022/02/24 10:10:28;;;;;;;50.00;19.32;;;;;;;19.10;57.54;101424.22;1897108;76;21119;-58
2022/02/24 10:13:13;;;;;;;51.85;21.10;;;;;;;19.36;56.09;101424.83;1896356;76;21053;-59
2022/02/24 10:15:44;;;;;;;54.70;22.37;;;;;;;18.60;56.16;101426.91;1897042;76;21109;-58
2022/02/24 10:18:16;;;;;;;49.08;20.80;;;;;;;17.69;57.45;101432.30;1897052;76;21049;-58
2022/02/24 10:20:48;;;;;;;50.92;19.92;;;;;;;17.06;58.20;101431.00;1897160;76;21042;-58
2022/02/24 10:23:18;;;;;;;46.33;21.60;;;;;;;16.57;58.73;101425.20;1897012;76;21046;-58
2022/02/24 10:25:53;;;;;;;56.02;21.50;;;;;;;16.25;59.39;101438.83;1896967;76;21042;-57
2022/02/24 10:28:30;;;;;;;56.28;22.40;;;;;;;16.00;59.89;101437.44;1897098;76;21146;-58
2022/02/24 10:31:01;;;;;;;53.85;21.10;;;;;;;16.00;60.20;101426.81;1897122;76;21081;-57
2022/02/24 10:33:30;;;;;;;50.75;20.55;;;;;;;16.08;59.98;101428.59;1896682;76;21047;-58
2022/02/24 10:36:17;;;;;;;45.98;20.30;;;;;;;16.15;59.82;101429.16;1897097;75;21038;-57
2022/02/24 10:39:09;;;;;;;50.43;21.48;;;;;;;16.19;59.59;101423.62;1893097;75;21077;-59
2022/02/24 10:41:46;;;;;;;52.75;21.52;;;;;;;16.37;59.13;101422.25;1860422;76;21037;-58
2022/02/24 10:44:28;;;;;;;48.00;20.30;;;;;;;16.42;58.89;101413.58;1860299;77;21041;-58
2022/02/24 10:47:10;;;;;;;48.17;20.92;;;;;;;16.43;58.70;101408.63;1860297;77;21535;-59
2022/02/24 10:49:42;;;;;;;51.98;20.80;;;;;;;16.68;58.18;101413.98;1860368;77;21037;-58
2022/02/24 10:52:20;;;;;;;55.50;23.10;;;;;;;17.40;57.08;101413.16;1860325;77;21017;-58
2022/02/24 10:55:00;;;;;;;54.55;21.37;;;;;;;17.28;56.89;101410.25;1860214;77;21464;-59
2022/02/24 10:57:30;;;;;;;52.85;20.82;;;;;;;17.15;57.20;101407.87;1860300;77;21459;-59
2022/02/24 11:00:00;;;;;;;49.13;21.80;;;;;;;17.22;57.03;101406.58;1860459;77;21036;-58
2022/02/24 11:02:30;;;;;;;49.60;20.90;;;;;;;17.34;56.59;101411.22;1860387;77;21561;-58
2022/02/24 11:04:59;;;;;;;53.02;20.52;;;;;;;16.97;57.00;101415.09;1860287;77;21553;-59
2022/02/24 11:07:28;;;;;;;47.88;20.45;;;;;;;16.75;57.41;101424.68;1860398;77;21041;-60
2022/02/24 11:09:59;;;;;;;43.98;17.85;;;;;;;16.58;57.59;101425.12;1860336;77;20993;-58
2022/02/24 11:12:30;;;;;;;52.78;20.30;;;;;;;16.45;57.87;101418.73;1860425;77;21033;-57
2022/02/24 11:14:59;;;;;;;49.83;19.87;;;;;;;16.06;58.46;101427.81;1860330;77;21479;-57
2022/02/24 11:17:28;;;;;;;41.83;18.30;;;;;;;15.67;59.21;101426.20;1860353;77;21017;-57
2022/02/24 11:19:57;;;;;;;55.63;21.35;;;;;;;15.43;59.71;101419.83;1860177;77;21468;-59
2022/02/24 11:22:26;;;;;;;47.50;21.30;;;;;;;15.06;60.33;101426.89;1860289;77;21435;-59
2022/02/24 11:24:57;;;;;;;53.87;20.90;;;;;;;14.76;60.98;101421.70;1860385;76;21461;-59
2022/02/24 11:27:32;;;;;;;48.75;20.32;;;;;;;14.54;61.49;101414.69;1860160;76;21065;-58